createdAt,value
2019-04-23T00:00:23.581Z,16.83
2019-04-23T00:02:58.870Z,16.76
2019-04-23T00:10:56.736Z,16.73
2019-04-23T00:13:05.455Z,16.61
2019-04-23T00:16:26.552Z,16.53
2019-04-23T00:21:26.938Z,16.40
2019-04-23T00:24:22.575Z,16.38
2019-04-23T00:26:30.586Z,16.38
2019-04-23T00:29:08.692Z,16.16
2019-04-23T00:31:46.393Z,16.09
2019-04-23T00:34:04.156Z,16.02
2019-04-23T00:36:40.324Z,15.97
2019-04-23T00:39:01.829Z,15.88
2019-04-23T00:41:36.262Z,15.83
2019-04-23T00:46:38.435Z,15.71
2019-04-23T00:51:36.793Z,15.70
2019-04-23T00:54:15.793Z,15.61
2019-04-23T00:56:50.820Z,15.59
2019-04-23T00:59:05.320Z,15.54
2019-04-23T01:01:56.736Z,15.44
2019-04-23T01:04:12.034Z,15.27
2019-04-23T01:06:47.742Z,15.21
2019-04-23T01:09:20.250Z,15.34
2019-04-23T01:11:43.490Z,15.14
2019-04-23T01:16:42.558Z,14.99
2019-04-23T01:19:33.188Z,14.96
2019-04-23T01:21:39.134Z,14.98
2019-04-23T01:24:21.288Z,14.89
2019-04-23T01:30:04.762Z,14.92
2019-04-23T01:32:32.038Z,14.88
2019-04-23T01:35:15.453Z,14.91
2019-04-23T01:37:39.058Z,14.90
2019-04-23T01:42:42.002Z,14.71
2019-04-23T01:45:16.701Z,14.75
2019-04-23T01:50:14.365Z,14.63
2019-04-23T01:52:45.669Z,14.60
2019-04-23T01:55:15.027Z,14.42
2019-04-23T01:57:47.200Z,14.45
2019-04-23T02:00:24.126Z,14.38
2019-04-23T02:02:54.515Z,14.40
2019-04-23T02:05:22.905Z,14.40
2019-04-23T02:07:50.378Z,14.43
2019-04-23T02:10:42.627Z,14.30
2019-04-23T02:12:56.998Z,14.25
2019-04-23T02:15:23.087Z,14.16
2019-04-23T02:17:58.614Z,14.19
2019-04-23T02:20:32.589Z,14.26
2019-04-23T02:23:18.525Z,14.32
2019-04-23T02:38:31.833Z,14.11
2019-04-23T02:46:05.699Z,14.04
2019-04-23T02:48:41.076Z,14.07
2019-04-23T02:51:12.577Z,13.96
2019-04-23T02:53:37.521Z,13.96
2019-04-23T02:56:04.378Z,13.91
2019-04-23T02:58:38.668Z,13.83
2019-04-23T03:01:14.801Z,13.77
2019-04-23T03:03:44.936Z,13.73
2019-04-23T03:06:16.540Z,13.76
2019-04-23T03:08:46.957Z,13.72
2019-04-23T03:16:38.476Z,13.52
2019-04-23T03:19:09.764Z,13.45
2019-04-23T03:27:25.362Z,13.62
2019-04-23T03:29:40.144Z,13.57
2019-04-23T03:32:51.920Z,13.52
2019-04-23T03:42:09.976Z,13.32
2019-04-23T03:44:47.893Z,13.51
2019-04-23T03:47:20.665Z,13.40
2019-04-23T03:52:20.750Z,13.36
2019-04-23T03:54:45.536Z,13.32
2019-04-23T03:57:18.461Z,13.27
2019-04-23T04:04:44.813Z,13.02
2019-04-23T04:07:32.758Z,13.18
2019-04-23T04:09:53.856Z,13.19
2019-04-23T04:15:13.177Z,13.24
2019-04-23T04:19:56.403Z,13.09
2019-04-23T04:25:02.402Z,12.89
2019-04-23T04:27:43.351Z,12.92
2019-04-23T04:32:31.686Z,12.87
2019-04-23T04:38:00.329Z,12.76
2019-04-23T04:40:10.942Z,12.75
2019-04-23T04:42:37.065Z,12.83
2019-04-23T04:45:14.249Z,12.74
2019-04-23T04:50:46.380Z,12.78
2019-04-23T04:55:19.463Z,12.84
2019-04-23T04:57:43.412Z,12.72
2019-04-23T05:03:02.746Z,12.66
2019-04-23T05:05:37.608Z,12.79
2019-04-23T05:08:00.711Z,12.79
2019-04-23T05:18:28.941Z,12.80
2019-04-23T05:23:19.517Z,12.79
2019-04-23T05:25:46.406Z,12.79
2019-04-23T05:28:30.198Z,12.73
2019-04-23T05:33:18.873Z,12.84
2019-04-23T05:36:06.126Z,12.88
2019-04-23T05:38:39.482Z,12.93
2019-04-23T05:40:53.738Z,12.76
2019-04-23T05:43:19.265Z,12.87
2019-04-23T05:46:16.042Z,12.91
2019-04-23T05:48:24.849Z,12.85
2019-04-23T05:51:04.285Z,12.65
2019-04-23T05:53:21.641Z,12.78
2019-04-23T05:56:01.541Z,12.68
2019-04-23T05:58:29.057Z,12.68
2019-04-23T06:06:54.178Z,12.82
2019-04-23T06:09:09.097Z,12.86
2019-04-23T06:11:45.216Z,12.88
2019-04-23T06:16:44.614Z,13.10
2019-04-23T06:19:13.046Z,13.03
2019-04-23T06:21:54.986Z,13.03
2019-04-23T06:24:19.572Z,13.05
2019-04-23T06:26:47.216Z,13.01
2019-04-23T06:29:20.990Z,13.17
2019-04-23T06:31:50.895Z,13.39
2019-04-23T06:34:17.165Z,13.51
2019-04-23T06:36:47.839Z,13.54
2019-04-23T06:39:26.354Z,13.51
2019-04-23T06:41:51.627Z,13.58
2019-04-23T06:44:24.308Z,13.63
2019-04-23T06:46:57.315Z,13.51
2019-04-23T06:49:27.055Z,13.58
2019-04-23T06:52:08.441Z,13.76
2019-04-23T06:54:25.772Z,14.00
2019-04-23T07:04:36.202Z,14.46
2019-04-23T07:07:25.550Z,14.73
2019-04-23T07:09:26.283Z,14.63
2019-04-23T07:12:05.618Z,14.81
2019-04-23T07:14:47.647Z,14.98
2019-04-23T07:17:05.356Z,14.94
2019-04-23T07:22:14.624Z,15.14
2019-04-23T07:24:43.972Z,15.31
2019-04-23T07:27:12.034Z,15.46
2019-04-23T07:29:43.502Z,15.57
2019-04-23T07:32:11.852Z,15.60
2019-04-23T07:34:53.794Z,15.74
2019-04-23T07:37:12.571Z,16.01
2019-04-23T07:40:19.693Z,16.15
2019-04-23T07:42:51.288Z,16.12
2019-04-23T07:55:51.371Z,16.25
2019-04-23T07:58:26.967Z,16.41
2019-04-23T08:05:53.544Z,16.71
2019-04-23T08:08:16.791Z,16.91
2019-04-23T08:11:31.327Z,17.00
2019-04-23T08:16:19.662Z,17.29
2019-04-23T08:18:45.384Z,17.42
2019-04-23T08:21:24.746Z,17.48
2019-04-23T08:27:04.164Z,17.28
2019-04-23T08:32:07.447Z,17.40
2019-04-23T08:37:09.364Z,17.51
2019-04-23T08:42:27.304Z,17.67
2019-04-23T08:44:57.021Z,17.61
2019-04-23T08:47:23.292Z,17.68
2019-04-23T08:50:11.305Z,17.65
2019-04-23T08:52:40.185Z,17.74
2019-04-23T08:55:08.321Z,17.72
2019-04-23T08:59:57.451Z,17.86
2019-04-23T09:02:35.677Z,17.98
2019-04-23T09:05:00.058Z,18.10
2019-04-23T09:07:28.061Z,17.99
2019-04-23T09:10:04.487Z,18.02
2019-04-23T09:12:37.230Z,17.88
2019-04-23T09:15:07.125Z,18.04
2019-04-23T09:22:36.475Z,18.16
2019-04-23T09:25:16.647Z,18.23
2019-04-23T09:32:42.224Z,18.33
2019-04-23T09:35:48.451Z,18.31
2019-04-23T09:38:34.860Z,18.29
2019-04-23T09:47:08.284Z,18.52
2019-04-23T09:49:33.237Z,18.70
2019-04-23T09:52:11.160Z,18.76
2019-04-23T09:54:40.190Z,18.91
2019-04-23T09:57:03.953Z,18.92
2019-04-23T10:02:01.026Z,19.12
2019-04-23T10:04:27.921Z,19.20
2019-04-23T10:07:00.345Z,19.24
2019-04-23T10:09:16.167Z,19.36
2019-04-23T10:11:45.251Z,19.56
2019-04-23T10:14:14.749Z,19.70
2019-04-23T10:16:45.188Z,19.83
2019-04-23T10:19:15.123Z,19.89
2019-04-23T10:21:44.660Z,19.80
2019-04-23T10:24:15.082Z,20.01
2019-04-23T10:26:44.288Z,19.97
2019-04-23T10:29:18.120Z,19.87
2019-04-23T10:31:47.531Z,20.10
2019-04-23T10:34:18.961Z,20.38
2019-04-23T10:36:49.469Z,20.57
2019-04-23T10:39:25.370Z,20.59
2019-04-23T10:41:52.234Z,20.39
2019-04-23T10:44:35.444Z,20.41
2019-04-23T10:48:11.659Z,20.27
2019-04-23T10:50:51.238Z,19.97
2019-04-23T10:58:23.114Z,20.00
2019-04-23T11:00:59.226Z,19.86
2019-04-23T11:03:42.465Z,19.71
2019-04-23T11:05:59.018Z,19.76
2019-04-23T11:08:30.780Z,19.92
2019-04-23T11:10:58.605Z,20.07
2019-04-23T11:16:41.965Z,20.06
2019-04-23T11:21:26.479Z,20.00
2019-04-23T11:23:51.928Z,20.13
2019-04-23T11:26:24.716Z,19.99
2019-04-23T11:28:44.820Z,20.06
2019-04-23T11:31:31.223Z,20.21
2019-04-23T11:41:35.058Z,20.47
2019-04-23T11:43:54.987Z,20.61
2019-04-23T11:46:46.155Z,20.54
2019-04-23T11:49:19.707Z,20.52
2019-04-23T11:54:01.802Z,20.66
2019-04-23T11:57:04.740Z,20.59
2019-04-23T11:59:12.260Z,20.66
2019-04-23T12:05:01.081Z,20.72
2019-04-23T12:10:22.279Z,20.72
2019-04-23T12:13:05.478Z,20.68
2019-04-23T12:15:25.146Z,20.60
2019-04-23T12:20:29.026Z,20.66
2019-04-23T12:25:32.531Z,20.82
2019-04-23T12:27:58.973Z,20.86
2019-04-23T12:35:22.647Z,20.83
2019-04-23T12:38:08.733Z,20.97
2019-04-23T12:45:35.568Z,21.09
2019-04-23T12:50:48.822Z,21.19
2019-04-23T12:55:43.681Z,21.29
2019-04-23T12:58:23.688Z,21.38
2019-04-23T13:00:55.901Z,21.41
2019-04-23T13:03:26.138Z,21.39
2019-04-23T13:05:47.701Z,21.63
2019-04-23T13:08:33.673Z,21.72
2019-04-23T13:10:54.447Z,21.72
2019-04-23T13:15:53.078Z,21.67
2019-04-23T13:18:31.627Z,21.48
2019-04-23T13:20:58.702Z,21.73
2019-04-23T13:23:43.869Z,21.77
2019-04-23T13:25:59.675Z,21.81
2019-04-23T13:31:11.700Z,21.95
2019-04-23T13:38:40.460Z,22.07
2019-04-23T13:43:46.698Z,22.31
2019-04-23T13:46:14.087Z,22.46
2019-04-23T13:48:42.089Z,22.54
2019-04-23T13:51:21.113Z,22.62
2019-04-23T13:56:30.259Z,22.74
2019-04-23T13:58:53.562Z,22.77
2019-04-23T14:01:28.729Z,22.81
2019-04-23T14:04:01.312Z,22.92
2019-04-23T14:09:00.205Z,23.07
2019-04-23T14:14:11.341Z,23.16
2019-04-23T14:19:02.366Z,23.19
2019-04-23T14:21:30.952Z,23.28
2019-04-23T14:26:34.003Z,23.40
2019-04-23T14:29:07.246Z,23.38
2019-04-23T14:31:36.598Z,23.53
2019-04-23T14:34:07.952Z,23.50
2019-04-23T14:36:47.824Z,23.51
2019-04-23T14:39:21.587Z,23.45
2019-04-23T14:41:44.061Z,23.20
2019-04-23T14:49:30.078Z,23.28
2019-04-23T14:52:01.709Z,23.38
2019-04-23T14:59:19.872Z,23.49
2019-04-23T15:02:04.352Z,23.45
2019-04-23T15:04:36.099Z,23.52
2019-04-23T15:07:08.929Z,23.56
2019-04-23T15:09:53.475Z,23.49
2019-04-23T15:12:16.003Z,23.59
2019-04-23T15:17:13.160Z,23.65
2019-04-23T15:19:55.291Z,23.54
2019-04-23T15:22:21.690Z,23.57
2019-04-23T15:25:03.921Z,23.55
2019-04-23T15:28:03.493Z,23.61
2019-04-23T15:29:47.570Z,23.67
2019-04-23T15:32:24.172Z,23.65
2019-04-23T15:35:11.621Z,23.65
2019-04-23T15:37:41.535Z,23.66
2019-04-23T15:40:04.312Z,23.59
2019-04-23T15:45:01.285Z,23.64
2019-04-23T15:47:32.870Z,23.53
2019-04-23T15:50:10.971Z,23.51
2019-04-23T15:52:44.435Z,23.47
2019-04-23T15:55:01.299Z,23.48
2019-04-23T15:57:53.580Z,23.52
2019-04-23T16:00:05.397Z,23.39
2019-04-23T16:02:08.579Z,23.32
2019-04-23T16:04:38.015Z,23.38
2019-04-23T16:07:08.503Z,23.38
2019-04-23T16:10:09.255Z,23.49
2019-04-23T16:12:41.635Z,23.54
2019-04-23T16:15:07.850Z,23.52
2019-04-23T16:17:44.192Z,23.48
2019-04-23T16:20:37.606Z,23.43
2019-04-23T16:22:50.672Z,23.42
2019-04-23T16:25:44.372Z,23.43
2019-04-23T16:28:03.270Z,23.40
2019-04-23T16:33:08.676Z,23.35
2019-04-23T16:35:51.567Z,23.36
2019-04-23T16:38:23.330Z,23.32
2019-04-23T16:40:42.627Z,23.31
2019-04-23T16:43:13.300Z,23.20
2019-04-23T16:48:36.538Z,23.14
2019-04-23T16:53:21.604Z,23.16
2019-04-23T16:55:55.343Z,23.13
2019-04-23T16:58:27.853Z,23.08
2019-04-23T17:01:06.048Z,23.02
2019-04-23T17:03:28.963Z,22.99
2019-04-23T17:06:08.563Z,22.92
2019-04-23T17:08:42.577Z,22.77
2019-04-23T17:11:00.424Z,22.80
2019-04-23T17:16:11.168Z,22.84
2019-04-23T17:18:34.117Z,22.76
2019-04-23T17:20:59.999Z,22.68
2019-04-23T17:23:40.080Z,22.65
2019-04-23T17:26:13.777Z,22.67
2019-04-23T17:33:41.707Z,22.48
2019-04-23T17:42:05.713Z,22.29
2019-04-23T17:47:14.045Z,22.09
2019-04-23T17:49:46.246Z,22.12
2019-04-23T17:52:14.283Z,21.92
2019-04-23T17:54:48.416Z,21.83
2019-04-23T18:00:04.880Z,21.50
2019-04-23T18:05:02.413Z,21.25
2019-04-23T18:07:39.182Z,21.12
2019-04-23T18:10:09.847Z,21.00
2019-04-23T18:12:38.927Z,20.87
2019-04-23T18:15:02.597Z,20.71
2019-04-23T18:17:35.650Z,20.56
2019-04-23T18:20:12.451Z,20.46
2019-04-23T18:25:23.960Z,20.17
2019-04-23T18:30:52.710Z,19.84
2019-04-23T18:35:49.534Z,19.54
2019-04-23T18:38:31.884Z,19.43
2019-04-23T18:41:02.392Z,19.32
2019-04-23T18:45:59.147Z,19.06
2019-04-23T18:56:19.204Z,18.57
2019-04-23T18:58:50.374Z,18.47
2019-04-23T19:04:00.376Z,18.24
2019-04-23T19:06:32.695Z,18.12
2019-04-23T19:09:10.425Z,17.98
2019-04-23T19:12:26.435Z,17.83
2019-04-23T19:14:40.892Z,17.74
2019-04-23T19:17:33.347Z,17.59
2019-04-23T19:19:35.059Z,17.51
2019-04-23T19:24:31.548Z,17.38
2019-04-23T19:29:47.963Z,17.27
2019-04-23T19:32:01.787Z,17.18
2019-04-23T19:37:18.538Z,17.10
2019-04-23T19:42:28.162Z,17.00
2019-04-23T19:44:43.932Z,16.97
2019-04-23T19:47:17.063Z,17.01
2019-04-23T19:49:45.347Z,16.93
2019-04-23T19:52:10.679Z,16.85
2019-04-23T19:55:41.399Z,16.82
2019-04-23T19:57:19.038Z,16.77
2019-04-23T20:02:38.630Z,16.66
2019-04-23T20:04:56.334Z,16.60
2019-04-23T20:07:42.626Z,16.61
2019-04-23T20:12:32.109Z,16.54
2019-04-23T20:15:18.038Z,16.45
2019-04-23T20:17:50.665Z,16.43
2019-04-23T20:20:04.401Z,16.36
2019-04-23T20:22:51.560Z,16.32
2019-04-23T20:25:39.374Z,16.30
2019-04-23T20:27:45.222Z,16.27
2019-04-23T20:33:51.690Z,16.21
2019-04-23T20:35:38.338Z,16.17
2019-04-23T20:38:31.234Z,16.12
2019-04-23T20:41:07.632Z,16.09
2019-04-23T20:43:14.699Z,15.95
2019-04-23T20:45:55.808Z,15.95
2019-04-23T20:48:25.140Z,15.88
2019-04-23T20:50:47.076Z,15.87
2019-04-23T20:53:24.880Z,15.81
2019-04-23T20:56:01.872Z,15.77
2019-04-23T20:58:38.626Z,15.71
2019-04-23T21:01:13.257Z,15.72
2019-04-23T21:11:14.786Z,15.53
2019-04-23T21:14:03.535Z,15.46
2019-04-23T21:16:23.471Z,15.40
2019-04-23T21:18:49.888Z,15.38
2019-04-23T21:24:14.668Z,15.33
2019-04-23T21:26:17.528Z,15.28
2019-04-23T21:28:57.155Z,15.33
2019-04-23T21:37:00.677Z,15.12
2019-04-23T21:43:11.395Z,15.11
2019-04-23T21:45:40.798Z,15.14
2019-04-23T21:48:09.903Z,15.18
2019-04-23T21:50:43.334Z,15.22
2019-04-23T21:53:12.173Z,15.20
2019-04-23T21:55:48.534Z,15.15
2019-04-23T22:00:53.525Z,15.05
2019-04-23T22:03:15.393Z,14.98
2019-04-23T22:05:50.910Z,14.86
2019-04-23T22:08:19.587Z,14.74
2019-04-23T22:11:00.071Z,14.65
2019-04-23T22:13:29.225Z,14.66
2019-04-23T22:16:03.998Z,14.57
2019-04-23T22:18:23.537Z,14.52
2019-04-23T22:20:58.211Z,14.46
2019-04-23T22:23:33.757Z,14.56
2019-04-23T22:25:56.393Z,14.46
2019-04-23T22:28:31.453Z,14.36
2019-04-23T22:33:24.992Z,14.45
2019-04-23T22:38:25.928Z,14.50
2019-04-23T22:43:31.103Z,14.36
2019-04-23T22:46:08.668Z,14.28
2019-04-23T22:48:46.377Z,14.10
2019-04-23T22:51:35.930Z,13.93
2019-04-23T22:53:55.862Z,13.87
2019-04-23T22:56:35.133Z,13.94
2019-04-23T22:58:51.644Z,13.95
2019-04-23T23:01:47.146Z,13.92
2019-04-23T23:04:04.483Z,13.85
2019-04-23T23:09:23.157Z,13.82
2019-04-23T23:11:42.998Z,13.83
2019-04-23T23:14:40.678Z,13.72
2019-04-23T23:19:21.694Z,13.68
2019-04-23T23:21:56.083Z,13.55
2019-04-23T23:24:13.598Z,13.61
2019-04-23T23:26:49.694Z,13.49
2019-04-23T23:29:13.549Z,13.35
2019-04-23T23:31:54.516Z,13.29
2019-04-23T23:34:15.971Z,13.28
2019-04-23T23:36:54.866Z,13.42
2019-04-23T23:39:22.795Z,13.48
2019-04-23T23:44:43.472Z,13.35
2019-04-23T23:49:28.498Z,13.41
2019-04-23T23:54:17.672Z,13.23
2019-04-23T23:57:04.094Z,13.23
